sensor_id;sensor_type;location;lat;lon;timestamp;temperature;humidity
75275;HTU21D;63871;47.216;39.684;2023-06-22T00:02:17;18.76;49.06
75275;HTU21D;63871;47.216;39.684;2023-06-22T00:04:43;18.73;49.37
75275;HTU21D;63871;47.216;39.684;2023-06-22T00:07:08;18.73;49.47
75275;HTU21D;63871;47.216;39.684;2023-06-22T00:09:34;18.65;48.58
75275;HTU21D;63871;47.216;39.684;2023-06-22T00:12:00;18.57;48.96
75275;HTU21D;63871;47.216;39.684;2023-06-22T00:14:26;18.50;49.11
75275;HTU21D;63871;47.216;39.684;2023-06-22T00:16:52;18.49;49.64
75275;HTU21D;63871;47.216;39.684;2023-06-22T00:19:23;18.51;49.89
75275;HTU21D;63871;47.216;39.684;2023-06-22T00:21:50;18.49;49.94
75275;HTU21D;63871;47.216;39.684;2023-06-22T00:24:21;18.42;49.85
75275;HTU21D;63871;47.216;39.684;2023-06-22T00:26:50;18.38;50.18
75275;HTU21D;63871;47.216;39.684;2023-06-22T00:29:16;18.37;50.24
75275;HTU21D;63871;47.216;39.684;2023-06-22T00:31:42;18.32;50.05
75275;HTU21D;63871;47.216;39.684;2023-06-22T00:34:08;18.27;50.11
75275;HTU21D;63871;47.216;39.684;2023-06-22T00:36:36;18.19;50.00
75275;HTU21D;63871;47.216;39.684;2023-06-22T00:39:02;18.13;50.19
75275;HTU21D;63871;47.216;39.684;2023-06-22T00:41:29;18.11;50.31
75275;HTU21D;63871;47.216;39.684;2023-06-22T00:43:55;18.09;50.32
75275;HTU21D;63871;47.216;39.684;2023-06-22T00:46:22;18.08;50.40
75275;HTU21D;63871;47.216;39.684;2023-06-22T00:48:48;18.09;50.63
75275;HTU21D;63871;47.216;39.684;2023-06-22T00:51:14;18.08;50.69
75275;HTU21D;63871;47.216;39.684;2023-06-22T00:53:41;18.07;50.67
75275;HTU21D;63871;47.216;39.684;2023-06-22T00:56:10;18.05;50.79
75275;HTU21D;63871;47.216;39.684;2023-06-22T00:58:38;18.02;50.59
75275;HTU21D;63871;47.216;39.684;2023-06-22T01:01:07;17.96;50.69
75275;HTU21D;63871;47.216;39.684;2023-06-22T01:03:33;17.94;50.66
75275;HTU21D;63871;47.216;39.684;2023-06-22T01:06:08;17.91;50.62
75275;HTU21D;63871;47.216;39.684;2023-06-22T01:08:46;17.90;50.73
75275;HTU21D;63871;47.216;39.684;2023-06-22T01:11:28;17.89;50.91
75275;HTU21D;63871;47.216;39.684;2023-06-22T01:14:11;17.87;50.80
75275;HTU21D;63871;47.216;39.684;2023-06-22T01:16:41;17.87;50.77
75275;HTU21D;63871;47.216;39.684;2023-06-22T01:19:35;17.85;50.72
75275;HTU21D;63871;47.216;39.684;2023-06-22T01:22:03;17.84;50.75
75275;HTU21D;63871;47.216;39.684;2023-06-22T01:24:37;17.82;50.79
75275;HTU21D;63871;47.216;39.684;2023-06-22T01:29:41;17.74;51.00
75275;HTU21D;63871;47.216;39.684;2023-06-22T01:32:09;17.73;50.91
75275;HTU21D;63871;47.216;39.684;2023-06-22T01:34:37;17.68;51.08
75275;HTU21D;63871;47.216;39.684;2023-06-22T01:37:05;17.64;51.11
75275;HTU21D;63871;47.216;39.684;2023-06-22T01:39:31;17.61;51.48
75275;HTU21D;63871;47.216;39.684;2023-06-22T01:41:58;17.59;51.58
75275;HTU21D;63871;47.216;39.684;2023-06-22T01:44:25;17.62;51.69
75275;HTU21D;63871;47.216;39.684;2023-06-22T01:46:52;17.63;51.62
75275;HTU21D;63871;47.216;39.684;2023-06-22T01:49:18;17.65;51.77
75275;HTU21D;63871;47.216;39.684;2023-06-22T01:51:44;17.63;51.41
75275;HTU21D;63871;47.216;39.684;2023-06-22T01:54:10;17.65;51.53
75275;HTU21D;63871;47.216;39.684;2023-06-22T01:56:36;17.65;51.58
75275;HTU21D;63871;47.216;39.684;2023-06-22T01:59:12;17.67;51.64
75275;HTU21D;63871;47.216;39.684;2023-06-22T02:01:48;17.67;51.66
75275;HTU21D;63871;47.216;39.684;2023-06-22T02:04:21;17.69;51.66
75275;HTU21D;63871;47.216;39.684;2023-06-22T02:06:52;17.73;51.73
75275;HTU21D;63871;47.216;39.684;2023-06-22T02:09:21;17.74;51.63
75275;HTU21D;63871;47.216;39.684;2023-06-22T02:11:48;17.76;51.67
75275;HTU21D;63871;47.216;39.684;2023-06-22T02:14:17;17.74;51.59
75275;HTU21D;63871;47.216;39.684;2023-06-22T02:16:44;17.75;51.62
75275;HTU21D;63871;47.216;39.684;2023-06-22T02:19:10;17.73;51.66
75275;HTU21D;63871;47.216;39.684;2023-06-22T02:21:36;17.73;51.79
75275;HTU21D;63871;47.216;39.684;2023-06-22T02:24:02;17.78;51.96
75275;HTU21D;63871;47.216;39.684;2023-06-22T02:26:30;17.83;51.84
75275;HTU21D;63871;47.216;39.684;2023-06-22T02:28:56;17.88;51.69
75275;HTU21D;63871;47.216;39.684;2023-06-22T02:31:21;17.90;51.60
75275;HTU21D;63871;47.216;39.684;2023-06-22T02:33:47;17.92;51.69
75275;HTU21D;63871;47.216;39.684;2023-06-22T02:36:13;17.93;51.72
75275;HTU21D;63871;47.216;39.684;2023-06-22T02:38:43;17.97;51.67
75275;HTU21D;63871;47.216;39.684;2023-06-22T02:41:17;18.02;51.62
75275;HTU21D;63871;47.216;39.684;2023-06-22T02:43:46;18.00;51.34
75275;HTU21D;63871;47.216;39.684;2023-06-22T02:46:13;17.99;51.43
75275;HTU21D;63871;47.216;39.684;2023-06-22T02:48:40;18.05;51.47
75275;HTU21D;63871;47.216;39.684;2023-06-22T02:51:07;18.05;51.43
75275;HTU21D;63871;47.216;39.684;2023-06-22T02:53:35;18.07;51.52
75275;HTU21D;63871;47.216;39.684;2023-06-22T02:56:04;18.11;51.53
75275;HTU21D;63871;47.216;39.684;2023-06-22T02:58:36;18.18;51.49
75275;HTU21D;63871;47.216;39.684;2023-06-22T03:01:07;18.23;51.46
75275;HTU21D;63871;47.216;39.684;2023-06-22T03:03:34;18.29;51.53
75275;HTU21D;63871;47.216;39.684;2023-06-22T03:06:00;18.35;51.50
75275;HTU21D;63871;47.216;39.684;2023-06-22T03:08:29;18.41;51.30
75275;HTU21D;63871;47.216;39.684;2023-06-22T03:10:55;18.47;51.26
75275;HTU21D;63871;47.216;39.684;2023-06-22T03:13:22;18.52;51.32
75275;HTU21D;63871;47.216;39.684;2023-06-22T03:15:47;18.58;51.17
75275;HTU21D;63871;47.216;39.684;2023-06-22T03:18:13;18.63;51.09
75275;HTU21D;63871;47.216;39.684;2023-06-22T03:23:24;18.77;50.86
75275;HTU21D;63871;47.216;39.684;2023-06-22T03:25:50;18.81;50.76
75275;HTU21D;63871;47.216;39.684;2023-06-22T03:28:16;18.86;50.66
75275;HTU21D;63871;47.216;39.684;2023-06-22T03:30:41;18.92;50.56
75275;HTU21D;63871;47.216;39.684;2023-06-22T03:33:07;18.98;50.51
75275;HTU21D;63871;47.216;39.684;2023-06-22T03:35:33;19.06;50.28
75275;HTU21D;63871;47.216;39.684;2023-06-22T03:37:59;19.10;50.11
75275;HTU21D;63871;47.216;39.684;2023-06-22T03:40:24;19.17;50.05
75275;HTU21D;63871;47.216;39.684;2023-06-22T03:42:50;19.26;49.98
75275;HTU21D;63871;47.216;39.684;2023-06-22T03:45:35;19.37;49.93
75275;HTU21D;63871;47.216;39.684;2023-06-22T03:48:19;19.46;49.79
75275;HTU21D;63871;47.216;39.684;2023-06-22T03:51:21;19.54;49.49
75275;HTU21D;63871;47.216;39.684;2023-06-22T03:53:47;19.62;49.57
75275;HTU21D;63871;47.216;39.684;2023-06-22T03:56:13;19.69;49.39
75275;HTU21D;63871;47.216;39.684;2023-06-22T03:58:45;19.74;49.18
75275;HTU21D;63871;47.216;39.684;2023-06-22T04:01:11;19.81;49.11
75275;HTU21D;63871;47.216;39.684;2023-06-22T04:03:38;19.89;49.05
75275;HTU21D;63871;47.216;39.684;2023-06-22T04:06:04;19.99;49.02
75275;HTU21D;63871;47.216;39.684;2023-06-22T04:08:30;20.07;48.94
75275;HTU21D;63871;47.216;39.684;2023-06-22T04:10:55;20.16;48.78
75275;HTU21D;63871;47.216;39.684;2023-06-22T04:13:22;20.22;48.66
75275;HTU21D;63871;47.216;39.684;2023-06-22T04:15:47;20.28;48.47
75275;HTU21D;63871;47.216;39.684;2023-06-22T04:18:13;20.33;48.45
75275;HTU21D;63871;47.216;39.684;2023-06-22T04:20:39;20.41;48.31
75275;HTU21D;63871;47.216;39.684;2023-06-22T04:23:05;20.51;48.21
75275;HTU21D;63871;47.216;39.684;2023-06-22T04:25:31;20.57;47.97
75275;HTU21D;63871;47.216;39.684;2023-06-22T04:27:56;20.68;47.96
75275;HTU21D;63871;47.216;39.684;2023-06-22T04:30:22;20.76;47.87
75275;HTU21D;63871;47.216;39.684;2023-06-22T04:32:48;20.84;47.79
75275;HTU21D;63871;47.216;39.684;2023-06-22T04:35:25;20.91;47.50
75275;HTU21D;63871;47.216;39.684;2023-06-22T04:37:53;20.94;47.34
75275;HTU21D;63871;47.216;39.684;2023-06-22T04:40:24;21.03;47.18
75275;HTU21D;63871;47.216;39.684;2023-06-22T04:42:50;21.08;47.14
75275;HTU21D;63871;47.216;39.684;2023-06-22T04:45:20;21.14;47.02
75275;HTU21D;63871;47.216;39.684;2023-06-22T04:47:46;21.18;47.02
75275;HTU21D;63871;47.216;39.684;2023-06-22T04:50:12;21.25;46.88
75275;HTU21D;63871;47.216;39.684;2023-06-22T04:52:38;21.35;46.76
75275;HTU21D;63871;47.216;39.684;2023-06-22T04:55:04;21.46;46.57
75275;HTU21D;63871;47.216;39.684;2023-06-22T04:57:30;21.53;46.22
75275;HTU21D;63871;47.216;39.684;2023-06-22T05:00:01;21.59;45.74
75275;HTU21D;63871;47.216;39.684;2023-06-22T05:02:38;21.63;45.59
75275;HTU21D;63871;47.216;39.684;2023-06-22T05:05:05;21.67;45.29
75275;HTU21D;63871;47.216;39.684;2023-06-22T05:07:35;21.74;44.96
75275;HTU21D;63871;47.216;39.684;2023-06-22T05:10:03;21.75;44.09
75275;HTU21D;63871;47.216;39.684;2023-06-22T05:12:29;21.80;44.41
75275;HTU21D;63871;47.216;39.684;2023-06-22T05:14:56;21.91;44.16
75275;HTU21D;63871;47.216;39.684;2023-06-22T05:17:22;21.99;43.93
75275;HTU21D;63871;47.216;39.684;2023-06-22T05:19:48;22.08;44.04
75275;HTU21D;63871;47.216;39.684;2023-06-22T05:22:17;22.17;43.63
75275;HTU21D;63871;47.216;39.684;2023-06-22T05:24:43;22.24;43.09
75275;HTU21D;63871;47.216;39.684;2023-06-22T05:27:13;22.28;41.66
75275;HTU21D;63871;47.216;39.684;2023-06-22T05:29:39;22.37;42.16
75275;HTU21D;63871;47.216;39.684;2023-06-22T05:32:05;22.50;42.00
75275;HTU21D;63871;47.216;39.684;2023-06-22T05:34:31;22.58;41.29
75275;HTU21D;63871;47.216;39.684;2023-06-22T05:36:56;22.64;41.16
75275;HTU21D;63871;47.216;39.684;2023-06-22T05:39:24;22.75;41.44
75275;HTU21D;63871;47.216;39.684;2023-06-22T05:41:51;22.84;40.59
75275;HTU21D;63871;47.216;39.684;2023-06-22T05:44:17;22.94;41.31
75275;HTU21D;63871;47.216;39.684;2023-06-22T05:46:44;23.07;41.20
75275;HTU21D;63871;47.216;39.684;2023-06-22T05:49:12;23.16;40.44
75275;HTU21D;63871;47.216;39.684;2023-06-22T05:51:38;23.12;37.94
75275;HTU21D;63871;47.216;39.684;2023-06-22T05:54:04;23.13;39.30
75275;HTU21D;63871;47.216;39.684;2023-06-22T05:56:30;23.26;39.92
75275;HTU21D;63871;47.216;39.684;2023-06-22T05:58:56;23.49;40.00
75275;HTU21D;63871;47.216;39.684;2023-06-22T06:01:22;23.77;39.51
75275;HTU21D;63871;47.216;39.684;2023-06-22T06:03:48;24.13;39.32
75275;HTU21D;63871;47.216;39.684;2023-06-22T06:06:15;24.53;39.23
75275;HTU21D;63871;47.216;39.684;2023-06-22T06:08:41;24.91;38.17
75275;HTU21D;63871;47.216;39.684;2023-06-22T06:11:06;25.24;37.89
75275;HTU21D;63871;47.216;39.684;2023-06-22T06:13:32;25.58;36.44
75275;HTU21D;63871;47.216;39.684;2023-06-22T06:15:58;25.84;35.87
75275;HTU21D;63871;47.216;39.684;2023-06-22T06:18:24;26.21;35.74
75275;HTU21D;63871;47.216;39.684;2023-06-22T06:20:51;26.58;34.79
75275;HTU21D;63871;47.216;39.684;2023-06-22T06:23:16;26.98;34.86
75275;HTU21D;63871;47.216;39.684;2023-06-22T06:25:42;27.36;34.43
75275;HTU21D;63871;47.216;39.684;2023-06-22T06:28:08;27.73;33.86
75275;HTU21D;63871;47.216;39.684;2023-06-22T06:30:34;27.97;32.49
75275;HTU21D;63871;47.216;39.684;2023-06-22T06:33:02;28.15;32.25
75275;HTU21D;63871;47.216;39.684;2023-06-22T06:35:30;28.26;30.58
75275;HTU21D;63871;47.216;39.684;2023-06-22T06:37:55;28.24;30.74
75275;HTU21D;63871;47.216;39.684;2023-06-22T06:40:22;28.25;30.34
75275;HTU21D;63871;47.216;39.684;2023-06-22T06:42:48;28.32;30.87
75275;HTU21D;63871;47.216;39.684;2023-06-22T06:45:17;28.52;30.87
75275;HTU21D;63871;47.216;39.684;2023-06-22T06:47:43;28.72;30.48
75275;HTU21D;63871;47.216;39.684;2023-06-22T06:50:10;28.75;27.71
75275;HTU21D;63871;47.216;39.684;2023-06-22T06:52:36;28.68;28.66
75275;HTU21D;63871;47.216;39.684;2023-06-22T06:55:02;28.70;28.80
75275;HTU21D;63871;47.216;39.684;2023-06-22T06:57:33;28.69;28.71
75275;HTU21D;63871;47.216;39.684;2023-06-22T06:59:59;28.75;28.71
75275;HTU21D;63871;47.216;39.684;2023-06-22T07:02:26;28.78;28.77
75275;HTU21D;63871;47.216;39.684;2023-06-22T07:04:53;28.80;29.61
